createdAt,value
2023-05-11T00:03:54.286Z,55.30
2023-05-11T00:07:57.361Z,55.30
2023-05-11T00:12:00.412Z,54.75
2023-05-11T00:16:04.088Z,55.33
2023-05-11T00:20:09.910Z,55.77
2023-05-11T00:24:12.913Z,54.80
2023-05-11T00:28:16.030Z,55.37
2023-05-11T00:32:18.999Z,55.40
2023-05-11T00:36:23.404Z,55.30
2023-05-11T00:40:26.804Z,54.80
2023-05-11T00:44:29.775Z,55.55
2023-05-11T00:48:32.953Z,55.40
2023-05-11T00:52:38.472Z,54.65
2023-05-11T00:56:41.695Z,54.70
2023-05-11T01:00:44.798Z,54.67
2023-05-11T01:04:47.862Z,55.10
2023-05-11T01:08:57.962Z,54.20
2023-05-11T01:13:15.912Z,54.67
2023-05-11T01:17:32.550Z,54.73
2023-05-11T01:21:36.838Z,55.00
2023-05-11T01:26:15.294Z,55.05
2023-05-11T01:30:31.524Z,54.10
2023-05-11T01:34:36.989Z,54.40
2023-05-11T01:38:42.098Z,54.00
2023-05-11T01:42:49.622Z,54.67
2023-05-11T01:46:54.434Z,54.60
2023-05-11T01:51:01.475Z,55.20
2023-05-11T01:55:08.441Z,55.30
2023-05-11T01:59:12.965Z,55.50
2023-05-11T02:03:17.969Z,54.70
2023-05-11T02:07:23.453Z,54.75
2023-05-11T02:11:29.107Z,55.40
2023-05-11T02:15:33.900Z,55.60
2023-05-11T02:19:39.864Z,54.85
2023-05-11T02:23:44.364Z,55.20
2023-05-11T02:27:47.432Z,55.50
2023-05-11T02:31:53.979Z,55.70
2023-05-11T02:36:00.427Z,55.35
2023-05-11T02:40:07.517Z,55.25
2023-05-11T02:44:15.418Z,54.80
2023-05-11T02:48:23.935Z,55.35
2023-05-11T02:52:29.320Z,55.45
2023-05-11T02:56:32.738Z,53.95
2023-05-11T03:00:36.038Z,54.15
2023-05-11T03:04:39.966Z,53.50
2023-05-11T03:08:44.588Z,55.17
2023-05-11T03:12:48.146Z,54.27
2023-05-11T03:16:52.145Z,54.90
2023-05-11T03:20:55.493Z,55.25
2023-05-11T03:25:00.898Z,55.13
2023-05-11T03:29:04.384Z,55.10
2023-05-11T03:33:07.539Z,55.25
2023-05-11T03:37:13.619Z,55.45
2023-05-11T03:41:20.010Z,54.90
2023-05-11T03:45:24.093Z,54.77
2023-05-11T03:49:27.998Z,55.00
2023-05-11T03:53:31.916Z,55.47
2023-05-11T03:57:36.887Z,55.43
2023-05-11T04:01:39.941Z,55.35
2023-05-11T04:05:43.148Z,55.72
2023-05-11T04:09:46.207Z,55.60
2023-05-11T04:13:50.525Z,54.27
2023-05-11T04:17:53.693Z,55.70
2023-05-11T04:21:56.765Z,55.40
2023-05-11T04:25:59.747Z,54.47
2023-05-11T04:30:04.182Z,54.45
2023-05-11T04:34:08.644Z,55.20
2023-05-11T04:38:11.662Z,55.10
2023-05-11T04:42:14.678Z,54.60
2023-05-11T04:46:19.217Z,54.90
2023-05-11T04:50:22.293Z,54.70
2023-05-11T04:54:25.364Z,54.05
2023-05-11T04:58:28.366Z,55.30
2023-05-11T05:02:32.705Z,54.65
2023-05-11T05:06:35.846Z,54.13
2023-05-11T05:10:39.042Z,54.00
2023-05-11T05:14:42.137Z,54.45
2023-05-11T05:18:46.909Z,55.45
2023-05-11T05:22:50.153Z,54.60
2023-05-11T05:26:53.187Z,53.80
2023-05-11T05:30:56.248Z,54.33
2023-05-11T05:35:00.785Z,54.23
2023-05-11T05:39:08.822Z,54.10
2023-05-11T05:43:11.815Z,54.00
2023-05-11T05:47:14.831Z,53.60
2023-05-11T05:51:19.231Z,54.45
2023-05-11T05:55:22.847Z,54.10
2023-05-11T05:59:25.854Z,54.40
2023-05-11T06:03:29.775Z,54.10
2023-05-11T06:07:34.502Z,54.17
2023-05-11T06:11:38.244Z,54.05
2023-05-11T06:15:46.946Z,54.23
2023-05-11T06:19:50.753Z,53.67
2023-05-11T06:23:55.247Z,54.20
2023-05-11T06:27:58.240Z,54.55
2023-05-11T06:32:01.340Z,54.00
2023-05-11T06:36:08.083Z,53.35
2023-05-11T06:40:13.526Z,54.70
2023-05-11T06:44:16.494Z,53.60
2023-05-11T06:48:19.992Z,54.10
2023-05-11T06:52:23.090Z,53.87
2023-05-11T06:56:27.963Z,53.10
2023-05-11T07:00:31.068Z,54.25
2023-05-11T07:04:34.072Z,54.30
2023-05-11T07:08:37.109Z,53.50
2023-05-11T07:12:41.476Z,54.05
2023-05-11T07:16:44.604Z,54.15
2023-05-11T07:20:50.089Z,53.22
2023-05-11T07:24:53.340Z,54.00
2023-05-11T07:28:57.785Z,54.35
2023-05-11T07:33:00.859Z,54.10
2023-05-11T07:37:03.878Z,54.63
2023-05-11T07:41:08.886Z,54.30
2023-05-11T07:45:14.782Z,54.15
2023-05-11T07:49:23.002Z,53.60
2023-05-11T07:53:34.249Z,54.40
2023-05-11T07:57:37.453Z,54.33
2023-05-11T08:01:42.007Z,54.28
2023-05-11T08:05:45.072Z,54.30
2023-05-11T08:09:48.133Z,54.20
2023-05-11T08:13:51.716Z,54.10
2023-05-11T08:17:56.214Z,54.87
2023-05-11T08:21:59.284Z,54.45
2023-05-11T08:26:02.762Z,54.20
2023-05-11T08:30:06.665Z,54.20
2023-05-11T08:38:18.982Z,54.90
2023-05-11T08:42:25.073Z,54.40
2023-05-11T08:46:31.190Z,53.30
2023-05-11T08:50:36.047Z,54.17
2023-05-11T08:54:39.336Z,54.30
2023-05-11T08:58:43.480Z,54.20
2023-05-11T09:02:47.214Z,52.97
2023-05-11T09:06:52.354Z,54.00
2023-05-11T09:10:56.252Z,54.17
2023-05-11T09:15:02.440Z,54.15
2023-05-11T09:19:06.415Z,53.27
2023-05-11T09:23:11.063Z,54.40
2023-05-11T09:27:21.304Z,53.87
2023-05-11T09:31:37.933Z,54.70
2023-05-11T09:35:40.942Z,54.80
2023-05-11T09:40:14.008Z,51.30
2023-05-11T09:44:10.467Z,52.85
2023-05-11T09:48:26.937Z,50.35
2023-05-11T09:52:30.042Z,54.13
2023-05-11T09:56:48.327Z,54.10
2023-05-11T10:00:52.243Z,54.50
2023-05-11T10:04:57.694Z,54.50
2023-05-11T10:09:10.116Z,54.75
2023-05-11T10:13:14.762Z,55.67
2023-05-11T10:17:18.301Z,54.20
2023-05-11T10:21:21.589Z,55.00
2023-05-11T10:25:26.525Z,56.15
2023-05-11T10:29:31.986Z,55.40
2023-05-11T10:33:35.661Z,55.60
2023-05-11T10:37:38.902Z,55.20
2023-05-11T10:41:49.404Z,55.35
2023-05-11T10:46:05.143Z,55.85
2023-05-11T10:50:33.970Z,54.67
2023-05-11T10:54:46.873Z,56.20
2023-05-11T10:59:07.781Z,54.88
2023-05-11T11:03:13.829Z,56.05
2023-05-11T11:07:18.694Z,54.90
2023-05-11T11:11:33.237Z,55.15
2023-05-11T11:16:09.533Z,55.55
2023-05-11T11:20:47.416Z,56.20
2023-05-11T11:24:50.433Z,55.80
2023-05-11T11:29:12.432Z,56.30
2023-05-11T11:33:34.385Z,55.85
2023-05-11T11:38:02.314Z,56.07
2023-05-11T11:42:07.206Z,55.10
2023-05-11T11:46:10.249Z,56.27
2023-05-11T11:50:14.344Z,55.70
2023-05-11T11:54:38.524Z,55.70
2023-05-11T11:59:00.924Z,55.25
2023-05-11T12:03:05.275Z,56.35
2023-05-11T12:07:10.690Z,55.50
2023-05-11T12:11:18.857Z,54.80
2023-05-11T12:15:26.389Z,55.50
2023-05-11T12:19:29.427Z,55.80
2023-05-11T12:23:32.703Z,55.35
2023-05-11T12:27:37.096Z,55.70
2023-05-11T12:31:41.144Z,55.33
2023-05-11T12:35:45.580Z,54.85
2023-05-11T12:39:54.589Z,55.10
2023-05-11T12:43:59.200Z,55.33
2023-05-11T12:48:02.388Z,55.90
2023-05-11T12:52:09.004Z,55.25
2023-05-11T12:56:12.453Z,56.17
2023-05-11T13:00:19.979Z,55.10
2023-05-11T13:04:31.109Z,55.20
2023-05-11T13:08:34.250Z,55.40
2023-05-11T13:12:48.291Z,54.90
2023-05-11T13:16:55.818Z,54.95
2023-05-11T13:21:08.692Z,55.70
2023-05-11T13:25:11.684Z,55.20
2023-05-11T13:29:14.693Z,55.35
2023-05-11T13:33:19.513Z,55.90
2023-05-11T13:37:22.678Z,54.50
2023-05-11T13:41:26.102Z,56.50
2023-05-11T13:45:29.424Z,56.70
2023-05-11T13:49:34.648Z,56.20
2023-05-11T13:53:37.627Z,55.90
2023-05-11T13:57:40.802Z,54.30
2023-05-11T14:01:44.015Z,56.97
2023-05-11T14:05:50.044Z,55.90
2023-05-11T14:09:53.069Z,54.33
2023-05-11T14:13:56.129Z,54.92
2023-05-11T14:17:59.283Z,55.60
2023-05-11T14:22:03.886Z,55.42
2023-05-11T14:26:07.524Z,55.65
2023-05-11T14:30:11.506Z,55.60
2023-05-11T14:34:14.512Z,56.05
2023-05-11T14:38:19.070Z,55.65
2023-05-11T14:42:22.159Z,54.65
2023-05-11T14:46:26.584Z,55.47
2023-05-11T14:50:30.146Z,55.20
2023-05-11T14:54:36.011Z,55.30
2023-05-11T14:58:39.124Z,56.25
2023-05-11T15:02:42.400Z,55.55
2023-05-11T15:06:45.447Z,55.40
2023-05-11T15:10:49.972Z,55.77
2023-05-11T15:14:52.958Z,55.20
2023-05-11T15:18:56.152Z,54.80
2023-05-11T15:22:59.245Z,55.50
2023-05-11T15:27:03.735Z,53.63
2023-05-11T15:31:06.733Z,54.90
2023-05-11T15:35:10.603Z,55.03
2023-05-11T15:39:13.698Z,54.80
2023-05-11T15:43:18.057Z,53.85
2023-05-11T15:47:21.132Z,54.22
2023-05-11T15:51:24.396Z,55.30
2023-05-11T15:55:27.451Z,54.80
2023-05-11T15:59:32.553Z,55.05
2023-05-11T16:03:35.718Z,55.40
2023-05-11T16:07:39.425Z,53.80
2023-05-11T16:11:43.549Z,55.83
2023-05-11T16:15:47.955Z,55.22
2023-05-11T16:19:51.285Z,53.65
2023-05-11T16:23:54.409Z,54.80
2023-05-11T16:27:57.367Z,55.20
2023-05-11T16:32:01.907Z,54.33
2023-05-11T16:36:06.472Z,54.22
2023-05-11T16:40:10.559Z,54.15
2023-05-11T16:44:13.816Z,54.85
2023-05-11T16:48:18.164Z,55.03
2023-05-11T16:52:21.185Z,54.75
2023-05-11T16:56:24.182Z,53.85
2023-05-11T17:00:28.255Z,55.00
2023-05-11T17:04:32.594Z,54.07
2023-05-11T17:08:35.592Z,54.70
2023-05-11T17:12:38.601Z,53.65
2023-05-11T17:16:42.036Z,55.15
2023-05-11T17:20:46.724Z,54.65
2023-05-11T17:24:49.822Z,53.65
2023-05-11T17:28:52.866Z,54.77
2023-05-11T17:32:56.276Z,53.50
2023-05-11T17:37:00.925Z,54.50
2023-05-11T17:41:05.907Z,54.27
2023-05-11T17:45:10.250Z,53.10
2023-05-11T17:49:13.247Z,53.20
2023-05-11T17:53:17.652Z,52.57
2023-05-11T17:57:23.399Z,52.80
2023-05-11T18:01:27.568Z,53.65
2023-05-11T18:05:40.302Z,53.53
2023-05-11T18:09:53.385Z,53.65
2023-05-11T18:13:57.473Z,54.10
2023-05-11T18:18:00.481Z,53.43
2023-05-11T18:22:04.611Z,54.17
2023-05-11T18:26:08.955Z,54.03
2023-05-11T18:30:12.751Z,53.67
2023-05-11T18:34:15.781Z,54.05
2023-05-11T18:38:18.784Z,53.33
2023-05-11T18:42:23.126Z,53.37
2023-05-11T18:46:26.141Z,53.40
2023-05-11T18:50:30.028Z,53.60
2023-05-11T18:54:33.809Z,53.45
2023-05-11T18:58:38.408Z,53.70
2023-05-11T19:02:41.519Z,53.53
2023-05-11T19:06:44.625Z,53.25
2023-05-11T19:10:49.461Z,53.90
2023-05-11T19:14:56.231Z,53.85
2023-05-11T19:18:59.441Z,53.93
2023-05-11T19:23:04.353Z,52.00
2023-05-11T19:27:08.158Z,53.25
2023-05-11T19:31:13.745Z,52.70
2023-05-11T19:35:17.724Z,53.00
2023-05-11T19:39:20.712Z,52.95
2023-05-11T19:43:23.933Z,53.55
2023-05-11T19:47:28.566Z,54.30
2023-05-11T19:51:32.008Z,54.07
2023-05-11T19:55:35.214Z,53.45
2023-05-11T19:59:39.068Z,53.80
2023-05-11T20:03:50.856Z,53.57
2023-05-11T20:07:53.923Z,54.15
2023-05-11T20:11:56.898Z,53.70
2023-05-11T20:16:00.334Z,53.50
2023-05-11T20:20:05.217Z,54.50
2023-05-11T20:24:08.833Z,53.93
2023-05-11T20:28:12.327Z,53.73
2023-05-11T20:32:15.458Z,54.15
2023-05-11T20:36:21.001Z,54.05
2023-05-11T20:40:25.437Z,54.60
2023-05-11T20:44:28.516Z,53.55
2023-05-11T20:48:39.956Z,54.70
2023-05-11T20:52:44.728Z,53.85
2023-05-11T20:56:47.756Z,54.38
2023-05-11T21:00:50.775Z,54.25
2023-05-11T21:05:01.510Z,53.00
2023-05-11T21:09:06.524Z,53.50
2023-05-11T21:13:09.776Z,53.60
2023-05-11T21:17:12.801Z,53.05
2023-05-11T21:21:15.975Z,54.10
2023-05-11T21:25:20.415Z,53.53
2023-05-11T21:29:23.443Z,53.85
2023-05-11T21:33:26.489Z,53.90
2023-05-11T21:37:33.375Z,53.80
2023-05-11T21:41:37.736Z,53.67
2023-05-11T21:45:41.116Z,54.00
2023-05-11T21:49:44.144Z,53.65
2023-05-11T21:53:47.133Z,53.75
2023-05-11T21:57:51.555Z,54.00
2023-05-11T22:01:55.329Z,53.83
2023-05-11T22:05:58.357Z,53.50
2023-05-11T22:10:01.434Z,53.90
2023-05-11T22:14:06.468Z,54.00
2023-05-11T22:18:09.579Z,53.60
2023-05-11T22:22:12.652Z,53.57
2023-05-11T22:26:15.667Z,54.00
2023-05-11T22:30:20.534Z,53.60
2023-05-11T22:34:24.444Z,53.70
2023-05-11T22:38:27.705Z,54.00
2023-05-11T22:42:32.845Z,52.95
2023-05-11T22:46:37.307Z,53.20
2023-05-11T22:50:46.584Z,53.73
2023-05-11T22:54:54.588Z,54.00
2023-05-11T22:58:59.930Z,53.83
2023-05-11T23:03:05.348Z,54.57
2023-05-11T23:07:12.059Z,54.40
2023-05-11T23:11:16.145Z,54.25
2023-05-11T23:15:19.423Z,54.08
2023-05-11T23:19:25.190Z,54.25
2023-05-11T23:23:28.351Z,53.27
2023-05-11T23:27:31.418Z,54.05
2023-05-11T23:31:34.507Z,54.00
2023-05-11T23:35:39.149Z,54.25
2023-05-11T23:39:42.127Z,54.00
2023-05-11T23:43:45.129Z,53.70
2023-05-11T23:47:48.169Z,54.10
2023-05-11T23:51:52.679Z,53.63
2023-05-11T23:55:55.685Z,53.97
2023-05-11T23:59:58.859Z,54.20
